METAR AND TAF INFORMATION
METAR FOR LOWI
ADDS - METARS form results

(0311 UTC 13 September 2022)
Data provider http://aviationweather.gov/metar/data/
 
METAR text: LOWI 130250Z AUTO 28005KT 9999 NCD 09/08 Q1016
Conditions at: LOWI (INNSBRUCK AIRPOR, AT) observed 0250 UTC 13 September 2022
Temperature: 9.0°C (48°F)
Dewpoint: 8.0°C (46°F) [RH = 93%]
Pressure (altimeter): 30.00 inches Hg (1016.0 mb)
Winds: from the W (280 degrees) at 6 MPH (5 knots; 2.6 m/s)
Visibility: 6 or more miles (10+ km)
Ceiling: at least 12,000 feet AGL
Clouds: sky clear below 12,000 feet AGL
Weather: no significant weather observed at this time

METAR text: LOWI 130220Z AUTO 28004KT 220V290 9999 NCD 09/08 Q1016
Conditions at: LOWI (INNSBRUCK AIRPOR, AT) observed 0220 UTC 13 September 2022
Temperature: 9.0°C (48°F)
Dewpoint: 8.0°C (46°F) [RH = 93%]
Pressure (altimeter): 30.00 inches Hg (1016.0 mb)
Winds: from the W (280 degrees) at 5 MPH (4 knots; 2.1 m/s)
Visibility: 6 or more miles (10+ km)
Ceiling: at least 12,000 feet AGL
Clouds: sky clear below 12,000 feet AGL
Weather: no significant weather observed at this time

Forecast for: LOWI (INNSBRUCK AIRPOR, AT)
Text: TAF LOWI 122315Z 1300/1324 27005KT CAVOK TX26/1314Z TN09/1305Z
Forecast period: 0000 to 1100 UTC 13 September 2022
Forecast type: FROM: standard forecast or significant change
Winds: from the W (270 degrees) at 6 MPH (5 knots; 2.6 m/s)
Visibility: 6 or more miles (10+ km)
Ceiling: unknown
Clouds: missing
Weather: no significant weather forecast for this period
Text: BECMG 1311/1313 07007KT
Forecast period: 1100 to 1800 UTC 13 September 2022
Forecast type: BECOMING: Conditions expected to become as follows by 1300 UTC 13 September 2022
Winds: from the ENE (70 degrees) at 8 MPH (7 knots; 3.6 m/s)
Visibility: 6 or more miles (10+ km)
Ceiling: unknown
Clouds: missing
Weather: no significant weather forecast for this period
Text: BECMG 1318/1320 27004KT
Forecast period: 1800 UTC 13 September 2022 to 0000 UTC 14 September 2022
Forecast type: BECOMING: Conditions expected to become as follows by 2000 UTC 13 September 2022
Winds: from the W (270 degrees) at 5 MPH (4 knots; 2.1 m/s)
Visibility: 6 or more miles (10+ km)
Ceiling: unknown
Clouds: missing
Weather: no significant weather forecast for this period

 AIRPORT MAP

 RUNWAY INFORMATION
Runway 08 Runway length 6562 ft Runway width 148 ft
Runway elevation 1906 ft Runway displaced threshold 339 ft Runway heading 81
Runway 26 Runway length 6562 ft Runway width 148 ft
Runway elevation 1893 ft Runway displaced threshold 198 ft Runway heading 261

 AIRPORT FREQUENCIES
Type APP Name APP Frequency 119.275 MHZ
Type ATIS Name ATIS Frequency 126.025 MHZ
Type TWR Name TWR Frequency 120.1 MHZ
Type GND Crew Name Frequency 121.8 MHZ
Type GND Crew Name Frequency 121.9 MHZ

 AIRPORT NEAR NAVIGATION AIDS
Type NDB Name Innsbruck Frequency 420 KHZ
Type NDB Name Kuhtai Frequency 413 KHZ





Powered by Virtual Airlines Manager

Maps by Rafael Santos